createdAt,value
2017-05-16T00:00:13.390Z,0
2017-05-16T00:00:54.318Z,0
2017-05-16T00:01:35.188Z,0
2017-05-16T00:02:16.086Z,0
2017-05-16T00:02:56.980Z,0
2017-05-16T00:03:37.861Z,0
2017-05-16T00:04:18.752Z,0
2017-05-16T00:04:59.647Z,0
2017-05-16T00:05:40.534Z,0
2017-05-16T00:06:21.428Z,0
2017-05-16T00:07:02.323Z,0
2017-05-16T00:07:43.205Z,0
2017-05-16T00:08:24.097Z,0
2017-05-16T00:09:04.988Z,0
2017-05-16T00:09:45.887Z,0
2017-05-16T00:10:26.782Z,0
2017-05-16T00:11:07.682Z,0
2017-05-16T00:11:48.567Z,0
2017-05-16T00:12:29.465Z,0
2017-05-16T00:13:10.356Z,0
2017-05-16T00:13:51.251Z,0
2017-05-16T00:14:32.152Z,0
2017-05-16T00:15:13.040Z,0
2017-05-16T00:15:53.919Z,0
2017-05-16T00:16:34.818Z,0
2017-05-16T00:17:15.706Z,0
2017-05-16T00:17:56.603Z,0
2017-05-16T00:18:37.498Z,0
2017-05-16T00:19:18.401Z,0
2017-05-16T00:19:59.296Z,0
2017-05-16T00:20:40.187Z,0
2017-05-16T00:21:21.078Z,0
2017-05-16T00:22:01.970Z,0
2017-05-16T00:22:42.867Z,0
2017-05-16T00:23:23.799Z,0
2017-05-16T00:24:04.639Z,0
2017-05-16T00:24:45.523Z,0
2017-05-16T00:25:26.418Z,0
2017-05-16T00:26:07.316Z,0
2017-05-16T00:26:48.189Z,0
2017-05-16T00:27:29.066Z,0
2017-05-16T00:28:09.958Z,0
2017-05-16T00:28:50.848Z,0
2017-05-16T00:29:31.728Z,0
2017-05-16T00:30:12.632Z,0
2017-05-16T00:30:53.479Z,0
2017-05-16T00:31:34.370Z,0
2017-05-16T00:32:15.248Z,0
2017-05-16T00:32:56.168Z,0
2017-05-16T00:33:37.055Z,0
2017-05-16T00:34:17.943Z,0
2017-05-16T00:34:58.825Z,0
2017-05-16T00:35:39.708Z,0
2017-05-16T00:36:20.597Z,0
2017-05-16T00:37:01.480Z,0
2017-05-16T00:37:42.383Z,0
2017-05-16T00:38:23.270Z,0
2017-05-16T00:39:04.153Z,0
2017-05-16T00:39:45.084Z,0
2017-05-16T00:40:25.962Z,0
2017-05-16T00:41:06.855Z,0
2017-05-16T00:41:47.747Z,0
2017-05-16T00:42:28.643Z,0
2017-05-16T00:43:09.533Z,0
2017-05-16T00:43:50.414Z,0
2017-05-16T00:44:31.305Z,0
2017-05-16T00:45:12.187Z,0
2017-05-16T00:45:53.078Z,0
2017-05-16T00:46:33.957Z,0
2017-05-16T00:47:14.856Z,0
2017-05-16T00:47:55.744Z,0
2017-05-16T00:48:36.635Z,0
2017-05-16T00:49:17.522Z,0
2017-05-16T00:49:58.383Z,0
2017-05-16T00:50:39.268Z,0
2017-05-16T00:51:20.162Z,0
2017-05-16T00:52:01.050Z,0
2017-05-16T00:52:41.950Z,0
2017-05-16T00:53:22.832Z,0
2017-05-16T00:54:03.731Z,0
2017-05-16T00:54:44.634Z,0
2017-05-16T00:55:25.518Z,0
2017-05-16T00:56:06.409Z,0
2017-05-16T00:56:47.304Z,0
2017-05-16T00:57:28.195Z,0
2017-05-16T00:58:09.096Z,0
2017-05-16T00:58:49.975Z,0
2017-05-16T00:59:30.861Z,0
2017-05-16T01:00:11.750Z,0
2017-05-16T01:00:52.642Z,0
2017-05-16T01:01:33.553Z,0
2017-05-16T01:02:14.454Z,0
2017-05-16T01:02:55.370Z,0
2017-05-16T01:03:36.269Z,0
2017-05-16T01:04:17.170Z,0
2017-05-16T01:04:58.058Z,0
2017-05-16T01:05:38.945Z,0
2017-05-16T01:06:19.843Z,0
2017-05-16T01:07:00.731Z,0
2017-05-16T01:07:41.617Z,0
2017-05-16T01:08:22.503Z,0
2017-05-16T01:09:03.409Z,0
2017-05-16T01:09:44.296Z,0
2017-05-16T01:10:25.184Z,0
2017-05-16T01:11:06.079Z,0
2017-05-16T01:11:46.966Z,0
2017-05-16T01:12:27.898Z,0
2017-05-16T01:13:08.784Z,0
2017-05-16T01:13:49.661Z,0
2017-05-16T01:14:30.559Z,0
2017-05-16T01:15:11.448Z,0
2017-05-16T01:15:52.345Z,0
2017-05-16T01:16:33.227Z,0
2017-05-16T01:17:14.121Z,0
2017-05-16T01:17:55.021Z,0
2017-05-16T01:18:35.927Z,0
2017-05-16T01:19:16.823Z,0
2017-05-16T01:19:57.720Z,0
2017-05-16T01:20:38.627Z,0
2017-05-16T01:21:19.515Z,0
2017-05-16T01:22:00.402Z,0
2017-05-16T01:22:41.306Z,0
2017-05-16T01:23:22.230Z,0
2017-05-16T01:24:03.126Z,0
2017-05-16T01:24:44.019Z,0
2017-05-16T01:25:24.898Z,0
2017-05-16T01:26:05.797Z,0
2017-05-16T01:26:46.676Z,0
2017-05-16T01:27:27.574Z,0
2017-05-16T01:28:08.470Z,0
2017-05-16T01:28:49.354Z,0
2017-05-16T01:29:30.266Z,0
2017-05-16T01:30:11.162Z,0
2017-05-16T01:30:52.063Z,0
2017-05-16T01:31:33.527Z,0
2017-05-16T01:32:13.904Z,0
2017-05-16T01:32:54.798Z,0
2017-05-16T01:33:35.672Z,0
2017-05-16T01:34:16.556Z,0
2017-05-16T01:34:57.499Z,0
2017-05-16T01:35:38.350Z,0
2017-05-16T01:36:19.252Z,0
2017-05-16T01:37:00.140Z,0
2017-05-16T01:37:41.031Z,0
2017-05-16T01:38:21.927Z,0
2017-05-16T01:39:02.815Z,0
2017-05-16T01:39:43.709Z,0
2017-05-16T01:40:24.603Z,0
2017-05-16T01:41:05.491Z,0
2017-05-16T01:41:46.387Z,0
2017-05-16T01:42:27.320Z,0
2017-05-16T01:43:08.167Z,0
2017-05-16T01:43:49.041Z,0
2017-05-16T01:44:29.948Z,0
2017-05-16T01:45:10.818Z,0
2017-05-16T01:45:51.705Z,0
2017-05-16T01:46:32.593Z,0
2017-05-16T01:47:13.477Z,0
2017-05-16T01:47:54.362Z,0
2017-05-16T01:48:35.246Z,0
2017-05-16T01:49:16.145Z,0
2017-05-16T01:49:57.030Z,0
2017-05-16T01:50:37.916Z,0
2017-05-16T01:51:18.852Z,0
2017-05-16T01:51:59.729Z,0
2017-05-16T01:52:40.631Z,0
2017-05-16T01:53:21.517Z,0
2017-05-16T01:54:02.404Z,0
2017-05-16T01:54:43.295Z,0
2017-05-16T01:55:24.183Z,0
2017-05-16T01:56:05.073Z,0
2017-05-16T01:56:45.961Z,0
2017-05-16T01:57:26.860Z,0
2017-05-16T01:58:07.747Z,0
2017-05-16T01:58:48.679Z,0
2017-05-16T01:59:29.571Z,0
2017-05-16T02:00:10.469Z,0
2017-05-16T02:00:51.365Z,0
2017-05-16T02:01:32.254Z,0
2017-05-16T02:02:13.147Z,0
2017-05-16T02:02:54.018Z,0
2017-05-16T02:03:34.931Z,0
2017-05-16T02:04:15.822Z,0
2017-05-16T02:04:56.716Z,0
2017-05-16T02:05:37.597Z,0
2017-05-16T02:06:18.489Z,0
2017-05-16T02:06:59.384Z,0
2017-05-16T02:07:40.293Z,0
2017-05-16T02:08:21.176Z,0
2017-05-16T02:09:02.064Z,0
2017-05-16T02:09:42.955Z,0
2017-05-16T02:10:23.838Z,0
2017-05-16T02:11:04.732Z,0
2017-05-16T02:11:45.627Z,0
2017-05-16T02:12:26.511Z,0
2017-05-16T02:13:07.403Z,0
2017-05-16T02:13:48.296Z,0
2017-05-16T02:14:29.188Z,0
2017-05-16T02:15:10.093Z,0
2017-05-16T02:15:50.967Z,0
2017-05-16T02:16:31.853Z,0
2017-05-16T02:17:12.755Z,0
2017-05-16T02:17:53.625Z,0
2017-05-16T02:18:34.524Z,0
2017-05-16T02:19:15.419Z,0
2017-05-16T02:19:56.307Z,0
2017-05-16T02:20:37.198Z,0
2017-05-16T02:21:18.097Z,0
2017-05-16T02:21:58.990Z,0
2017-05-16T02:22:39.868Z,0
2017-05-16T02:23:20.772Z,0
2017-05-16T02:24:01.666Z,0
2017-05-16T02:24:42.554Z,0
2017-05-16T02:25:23.469Z,0
2017-05-16T02:26:04.376Z,0
2017-05-16T02:26:45.286Z,0
2017-05-16T02:27:26.242Z,0
2017-05-16T02:28:07.180Z,0
2017-05-16T02:28:48.084Z,0
2017-05-16T02:29:28.973Z,0
2017-05-16T02:30:09.857Z,0
2017-05-16T02:30:50.741Z,0
2017-05-16T02:31:31.627Z,0
2017-05-16T02:32:12.513Z,0
2017-05-16T02:32:53.411Z,0
2017-05-16T02:33:34.301Z,0
2017-05-16T02:34:15.221Z,0
2017-05-16T02:34:56.100Z,0
2017-05-16T02:35:36.980Z,0
2017-05-16T02:36:17.860Z,0
2017-05-16T02:36:58.759Z,0
2017-05-16T02:37:39.647Z,0
2017-05-16T02:38:20.537Z,0
2017-05-16T02:39:01.433Z,0
2017-05-16T02:39:42.322Z,0
2017-05-16T02:40:23.200Z,0
2017-05-16T02:41:04.094Z,0
2017-05-16T02:41:44.991Z,0
2017-05-16T02:42:25.908Z,0
2017-05-16T02:43:06.798Z,0
2017-05-16T02:43:47.676Z,0
2017-05-16T02:44:28.563Z,0
2017-05-16T02:45:09.462Z,0
2017-05-16T02:45:50.357Z,0
2017-05-16T02:46:31.245Z,0
2017-05-16T02:47:12.135Z,0
2017-05-16T02:47:53.026Z,0
2017-05-16T02:48:33.940Z,0
2017-05-16T02:49:14.823Z,0
2017-05-16T02:49:55.717Z,0
2017-05-16T02:50:36.615Z,0
2017-05-16T02:51:17.511Z,0
2017-05-16T02:51:58.400Z,0
2017-05-16T02:52:39.295Z,0
2017-05-16T02:53:20.218Z,0
2017-05-16T02:54:01.084Z,0
2017-05-16T02:54:41.991Z,0
2017-05-16T02:55:22.894Z,0
2017-05-16T02:56:03.838Z,0
2017-05-16T02:56:44.736Z,0
2017-05-16T02:57:25.643Z,0
2017-05-16T02:58:06.554Z,0
2017-05-16T02:58:47.459Z,0
2017-05-16T02:59:28.349Z,0
2017-05-16T03:00:09.250Z,0
2017-05-16T03:00:50.131Z,0
2017-05-16T03:01:31.021Z,0
2017-05-16T03:02:11.908Z,0
2017-05-16T03:02:52.818Z,0
2017-05-16T03:03:33.706Z,0
2017-05-16T03:04:14.608Z,0
2017-05-16T03:04:55.492Z,0
2017-05-16T03:05:36.375Z,0
2017-05-16T03:06:17.260Z,0
2017-05-16T03:06:58.155Z,0
2017-05-16T03:07:39.042Z,0
2017-05-16T03:08:19.960Z,5
2017-05-16T03:09:00.842Z,5
2017-05-16T03:09:41.739Z,5
2017-05-16T03:10:22.625Z,5
2017-05-16T03:11:03.518Z,5
2017-05-16T03:11:44.410Z,5
2017-05-16T03:12:25.341Z,5
2017-05-16T03:13:06.252Z,5
2017-05-16T03:13:47.157Z,5
2017-05-16T03:14:28.064Z,5
2017-05-16T03:15:08.968Z,5
2017-05-16T03:15:49.843Z,5
2017-05-16T03:16:30.724Z,5
2017-05-16T03:17:11.613Z,5
2017-05-16T03:17:52.501Z,10
2017-05-16T03:18:33.387Z,10
2017-05-16T03:19:14.280Z,10
2017-05-16T03:19:55.171Z,10
2017-05-16T03:20:36.063Z,10
2017-05-16T03:21:16.952Z,10
2017-05-16T03:21:57.854Z,10
2017-05-16T03:22:38.753Z,10
2017-05-16T03:23:19.652Z,15
2017-05-16T03:24:00.548Z,15
2017-05-16T03:24:41.432Z,15
2017-05-16T03:25:22.322Z,15
2017-05-16T03:26:03.214Z,15
2017-05-16T03:26:44.108Z,20
2017-05-16T03:27:25.005Z,20
2017-05-16T03:28:05.884Z,20
2017-05-16T03:28:46.774Z,20
2017-05-16T03:29:27.668Z,25
2017-05-16T03:30:08.553Z,25
2017-05-16T03:30:49.441Z,25
2017-05-16T03:31:30.346Z,30
2017-05-16T03:32:11.237Z,30
2017-05-16T03:32:52.124Z,30
2017-05-16T03:33:33.133Z,35
2017-05-16T03:34:14.020Z,35
2017-05-16T03:34:54.902Z,35
2017-05-16T03:35:35.801Z,40
2017-05-16T03:36:16.694Z,40
2017-05-16T03:36:57.584Z,40
2017-05-16T03:37:38.485Z,45
2017-05-16T03:38:19.386Z,45
2017-05-16T03:39:00.275Z,45
2017-05-16T03:39:41.180Z,45
2017-05-16T03:40:22.074Z,45
2017-05-16T03:41:02.965Z,50
2017-05-16T03:41:43.848Z,50
2017-05-16T03:42:24.805Z,50
2017-05-16T03:43:05.641Z,50
2017-05-16T03:43:46.523Z,50
2017-05-16T03:44:27.408Z,50
2017-05-16T03:45:08.300Z,50
2017-05-16T03:45:49.183Z,50
2017-05-16T03:46:30.075Z,50
2017-05-16T03:47:10.963Z,50
2017-05-16T03:47:51.852Z,50
2017-05-16T03:48:32.745Z,50
2017-05-16T03:49:13.652Z,50
2017-05-16T03:49:54.537Z,50
2017-05-16T03:50:35.428Z,50
2017-05-16T03:51:16.321Z,50
2017-05-16T03:51:57.209Z,50
2017-05-16T03:52:38.104Z,50
2017-05-16T03:53:18.984Z,50
2017-05-16T03:53:59.878Z,50
2017-05-16T03:54:40.766Z,50
2017-05-16T03:55:21.657Z,50
2017-05-16T03:56:02.540Z,50
2017-05-16T03:56:43.464Z,50
2017-05-16T03:57:24.357Z,50
2017-05-16T03:58:05.313Z,50
2017-05-16T03:58:46.176Z,50
2017-05-16T03:59:27.064Z,50
2017-05-16T04:00:07.956Z,50
2017-05-16T04:00:48.851Z,50
2017-05-16T04:01:29.732Z,55
2017-05-16T04:02:10.614Z,55
2017-05-16T04:02:51.509Z,55
2017-05-16T04:03:32.408Z,55
2017-05-16T04:04:13.293Z,55
2017-05-16T04:04:54.182Z,60
2017-05-16T04:05:35.055Z,60
2017-05-16T04:06:15.940Z,60
2017-05-16T04:06:56.830Z,60
2017-05-16T04:07:37.722Z,60
2017-05-16T04:08:18.610Z,60
2017-05-16T04:08:59.499Z,60
2017-05-16T04:09:40.392Z,60
2017-05-16T04:10:21.291Z,60
2017-05-16T04:11:02.219Z,60
2017-05-16T04:11:43.139Z,60
2017-05-16T04:12:23.985Z,60
2017-05-16T04:13:04.885Z,60
2017-05-16T04:13:45.766Z,60
2017-05-16T04:14:26.663Z,60
2017-05-16T04:15:07.623Z,60
2017-05-16T04:15:48.510Z,60
2017-05-16T04:16:29.418Z,60
2017-05-16T04:17:10.329Z,60
2017-05-16T04:17:51.226Z,60
2017-05-16T04:18:32.129Z,65
2017-05-16T04:19:13.039Z,65
2017-05-16T04:19:53.920Z,65
2017-05-16T04:20:34.817Z,65
2017-05-16T04:21:15.708Z,65
2017-05-16T04:21:56.592Z,70
2017-05-16T04:22:37.495Z,70
2017-05-16T04:23:18.376Z,70
2017-05-16T04:23:59.266Z,70
2017-05-16T04:24:40.165Z,70
2017-05-16T04:25:21.060Z,70
2017-05-16T04:26:01.949Z,75
2017-05-16T04:26:42.848Z,75
2017-05-16T04:27:23.770Z,75
2017-05-16T04:28:04.644Z,75
2017-05-16T04:28:45.542Z,75
2017-05-16T04:29:26.433Z,75
2017-05-16T04:30:07.324Z,70
2017-05-16T04:30:48.226Z,70
2017-05-16T04:31:29.124Z,70
2017-05-16T04:32:10.001Z,70
2017-05-16T04:32:50.886Z,70
2017-05-16T04:33:31.775Z,70
2017-05-16T04:34:12.666Z,70
2017-05-16T04:34:53.550Z,65
2017-05-16T04:35:34.428Z,65
2017-05-16T04:36:15.320Z,65
2017-05-16T04:36:56.206Z,65
2017-05-16T04:37:37.152Z,65
2017-05-16T04:38:17.995Z,65
2017-05-16T04:38:58.885Z,65
2017-05-16T04:39:39.773Z,65
2017-05-16T04:40:20.663Z,65
2017-05-16T04:41:01.552Z,65
2017-05-16T04:41:42.438Z,65
2017-05-16T04:42:23.320Z,70
2017-05-16T04:43:04.216Z,70
2017-05-16T04:43:45.118Z,70
2017-05-16T04:46:24.519Z,85
2017-05-16T04:47:05.499Z,90
2017-05-16T04:47:46.339Z,90
2017-05-16T04:48:27.276Z,95
2017-05-16T04:49:08.164Z,100
2017-05-16T04:49:49.048Z,100
2017-05-16T04:50:29.931Z,105
2017-05-16T04:51:10.809Z,110
2017-05-16T04:51:51.701Z,110
2017-05-16T04:52:32.589Z,115
2017-05-16T04:53:13.466Z,115
2017-05-16T04:53:54.365Z,120
2017-05-16T04:54:35.257Z,125
2017-05-16T04:55:16.140Z,125
2017-05-16T04:55:57.022Z,130
2017-05-16T04:56:37.938Z,130
2017-05-16T04:57:18.791Z,135
2017-05-16T04:57:59.678Z,135
2017-05-16T04:58:40.574Z,140
2017-05-16T04:59:21.455Z,140
2017-05-16T05:00:02.350Z,140
2017-05-16T05:00:43.236Z,140
2017-05-16T05:01:24.215Z,140
2017-05-16T05:02:05.116Z,135
2017-05-16T05:02:45.989Z,140
2017-05-16T05:03:26.910Z,145
2017-05-16T05:04:07.819Z,145
2017-05-16T05:04:48.709Z,155
2017-05-16T05:05:29.599Z,160
2017-05-16T05:06:10.485Z,160
2017-05-16T05:06:51.455Z,170
2017-05-16T05:07:32.259Z,165
2017-05-16T05:08:13.151Z,170
2017-05-16T05:08:54.039Z,170
2017-05-16T05:09:34.989Z,165
2017-05-16T05:10:15.875Z,165
2017-05-16T05:10:56.740Z,160
2017-05-16T05:11:37.633Z,160
2017-05-16T05:12:18.534Z,155
2017-05-16T05:12:59.437Z,165
2017-05-16T05:13:40.327Z,170
2017-05-16T05:14:21.223Z,170
2017-05-16T05:15:02.128Z,170
2017-05-16T05:15:43.019Z,170
2017-05-16T05:16:23.909Z,170
2017-05-16T05:17:04.798Z,170
2017-05-16T05:17:45.690Z,170
2017-05-16T05:18:26.582Z,170
2017-05-16T05:19:07.470Z,170
2017-05-16T05:19:48.367Z,170
2017-05-16T05:20:29.261Z,165
2017-05-16T05:21:10.148Z,170
2017-05-16T05:21:51.039Z,175
2017-05-16T05:22:31.936Z,170
2017-05-16T05:23:12.830Z,175
2017-05-16T05:23:53.721Z,175
2017-05-16T05:24:34.613Z,180
2017-05-16T05:25:15.508Z,185
2017-05-16T05:25:56.398Z,190
2017-05-16T05:26:37.286Z,190
2017-05-16T05:27:18.190Z,200
2017-05-16T05:27:59.077Z,205
2017-05-16T05:28:39.965Z,210
2017-05-16T05:29:20.856Z,215
2017-05-16T05:30:01.749Z,230
2017-05-16T05:30:42.699Z,240
2017-05-16T05:31:23.724Z,255
2017-05-16T05:32:04.640Z,265
2017-05-16T05:32:45.597Z,270
2017-05-16T05:33:26.508Z,270
2017-05-16T05:34:07.399Z,275
2017-05-16T05:34:48.257Z,270
2017-05-16T05:35:29.153Z,270
2017-05-16T05:36:10.049Z,265
2017-05-16T05:36:50.942Z,265
2017-05-16T05:37:31.824Z,265
2017-05-16T05:38:13.259Z,260
2017-05-16T05:38:54.193Z,255
2017-05-16T05:39:35.105Z,260
2017-05-16T05:40:15.981Z,250
2017-05-16T05:40:56.898Z,245
2017-05-16T05:41:37.793Z,250
2017-05-16T05:42:18.699Z,250
2017-05-16T05:42:59.565Z,260
2017-05-16T05:43:40.466Z,270
2017-05-16T05:44:21.395Z,290
2017-05-16T05:45:02.295Z,310
2017-05-16T05:45:43.233Z,325
2017-05-16T05:46:24.142Z,335
2017-05-16T05:47:05.038Z,340
2017-05-16T05:47:45.926Z,350
2017-05-16T05:48:26.833Z,345
2017-05-16T05:49:07.720Z,355
2017-05-16T05:49:48.581Z,370
2017-05-16T05:50:29.492Z,335
2017-05-16T05:51:10.387Z,330
2017-05-16T05:51:51.328Z,335
2017-05-16T05:52:32.204Z,340
2017-05-16T05:53:13.118Z,340
2017-05-16T05:53:54.062Z,335
2017-05-16T05:54:34.976Z,335
2017-05-16T05:55:15.863Z,335
2017-05-16T05:55:56.757Z,325
2017-05-16T05:56:37.740Z,320
2017-05-16T05:57:18.701Z,315
2017-05-16T05:57:59.642Z,320
2017-05-16T05:58:40.546Z,310
2017-05-16T05:59:21.431Z,310
2017-05-16T06:00:02.310Z,305
2017-05-16T06:00:43.206Z,295
2017-05-16T06:01:24.117Z,290
2017-05-16T06:02:05.053Z,290
2017-05-16T06:03:58.645Z,290
2017-05-16T06:04:39.533Z,290
2017-05-16T06:05:20.418Z,290
2017-05-16T06:06:01.341Z,295
2017-05-16T06:06:42.182Z,295
2017-05-16T06:07:23.081Z,295
2017-05-16T06:08:03.975Z,295
2017-05-16T06:08:44.937Z,295
2017-05-16T06:09:25.783Z,295
2017-05-16T06:10:06.701Z,300
2017-05-16T06:10:47.576Z,305
2017-05-16T06:11:28.472Z,315
2017-05-16T06:12:09.400Z,315
2017-05-16T06:12:50.291Z,325
2017-05-16T06:13:31.191Z,330
2017-05-16T06:14:12.089Z,340
2017-05-16T06:14:52.970Z,345
2017-05-16T06:15:33.878Z,345
2017-05-16T06:16:14.753Z,350
2017-05-16T06:16:55.641Z,345
2017-05-16T06:17:36.556Z,345
2017-05-16T06:18:17.490Z,365
2017-05-16T06:18:58.378Z,375
2017-05-16T06:19:39.310Z,390
2017-05-16T06:20:20.201Z,370
2017-05-16T06:21:01.099Z,375
2017-05-16T06:21:42.015Z,415
2017-05-16T06:22:22.938Z,455
2017-05-16T06:23:03.801Z,455
2017-05-16T06:23:44.695Z,580
2017-05-16T06:24:25.578Z,685
2017-05-16T06:25:06.470Z,680
2017-05-16T06:25:47.370Z,575
2017-05-16T06:26:28.265Z,570
2017-05-16T06:27:09.162Z,605
2017-05-16T06:27:50.073Z,620
2017-05-16T06:28:30.980Z,655
2017-05-16T06:29:11.923Z,715
2017-05-16T06:29:52.835Z,815
2017-05-16T06:30:33.741Z,800
2017-05-16T06:31:14.666Z,850
2017-05-16T06:31:55.563Z,875
2017-05-16T06:32:36.459Z,705
2017-05-16T06:33:17.352Z,565
2017-05-16T06:33:58.255Z,495
2017-05-16T06:35:52.863Z,605
2017-05-16T06:36:33.771Z,590
2017-05-16T06:37:14.667Z,580
2017-05-16T06:37:55.567Z,615
2017-05-16T06:38:36.473Z,615
2017-05-16T06:39:17.380Z,625
2017-05-16T06:39:58.268Z,595
2017-05-16T06:40:39.176Z,625
2017-05-16T06:41:20.085Z,610
2017-05-16T06:42:01.000Z,600
2017-05-16T06:42:41.906Z,580
2017-05-16T06:43:22.808Z,540
2017-05-16T06:44:03.699Z,530
2017-05-16T06:44:44.690Z,515
2017-05-16T06:45:25.589Z,495
2017-05-16T06:46:06.500Z,490
2017-05-16T06:46:47.388Z,485
2017-05-16T06:47:28.280Z,485
2017-05-16T06:48:09.200Z,485
2017-05-16T06:48:50.083Z,490
2017-05-16T06:49:30.966Z,490
2017-05-16T06:50:11.856Z,500
2017-05-16T06:50:52.809Z,495
2017-05-16T06:51:33.652Z,495
2017-05-16T06:52:14.530Z,490
2017-05-16T06:52:55.431Z,500
2017-05-16T06:53:36.315Z,495
2017-05-16T06:54:17.210Z,495
2017-05-16T06:56:16.097Z,505
2017-05-16T06:56:56.997Z,510
2017-05-16T06:57:37.877Z,515
2017-05-16T06:58:18.772Z,525
2017-05-16T06:58:59.677Z,525
2017-05-16T06:59:40.557Z,540
2017-05-16T07:00:21.453Z,520
2017-05-16T07:01:02.352Z,525
2017-05-16T07:01:43.252Z,525
2017-05-16T07:02:24.170Z,515
2017-05-16T07:03:05.053Z,510
2017-05-16T07:03:45.965Z,510
2017-05-16T07:04:26.858Z,510
2017-05-16T07:05:07.744Z,510
2017-05-16T07:05:48.648Z,515
2017-05-16T07:06:29.583Z,510
2017-05-16T07:07:10.466Z,515
2017-05-16T07:07:51.364Z,500
2017-05-16T07:08:32.256Z,505
2017-05-16T07:09:13.156Z,500
2017-05-16T07:09:54.057Z,500
2017-05-16T07:10:34.974Z,500
2017-05-16T07:11:15.857Z,510
2017-05-16T07:11:56.753Z,530
2017-05-16T07:12:37.645Z,525
2017-05-16T07:13:18.543Z,540
2017-05-16T07:13:59.442Z,560
2017-05-16T07:14:40.345Z,605
2017-05-16T07:15:21.258Z,610
2017-05-16T07:16:02.161Z,605
2017-05-16T07:16:43.049Z,595
2017-05-16T07:17:23.937Z,615
2017-05-16T07:18:04.838Z,615
2017-05-16T07:18:45.725Z,590
2017-05-16T07:19:26.632Z,565
2017-05-16T07:20:07.538Z,555
2017-05-16T07:20:48.440Z,545
2017-05-16T07:21:29.336Z,545
2017-05-16T07:22:10.243Z,535
2017-05-16T07:22:51.134Z,525
2017-05-16T07:23:32.035Z,525
2017-05-16T07:24:12.940Z,535
2017-05-16T07:24:53.827Z,535
2017-05-16T07:25:34.726Z,550
2017-05-16T07:26:15.617Z,560
2017-05-16T07:26:56.496Z,585
2017-05-16T07:27:37.388Z,625
2017-05-16T07:28:18.300Z,630
2017-05-16T07:28:59.184Z,620
2017-05-16T07:29:40.080Z,605
2017-05-16T07:30:20.984Z,600
2017-05-16T07:31:01.873Z,585
2017-05-16T07:31:42.781Z,600
2017-05-16T07:32:23.664Z,660
2017-05-16T07:33:04.572Z,730
2017-05-16T07:33:45.464Z,740
2017-05-16T07:34:26.352Z,745
2017-05-16T07:35:07.283Z,725
2017-05-16T07:35:48.173Z,720
2017-05-16T07:36:29.060Z,720
2017-05-16T07:37:09.955Z,730
2017-05-16T07:37:50.835Z,725
2017-05-16T07:38:31.737Z,725
2017-05-16T07:39:12.632Z,725
2017-05-16T07:39:53.521Z,725
2017-05-16T07:40:34.432Z,715
2017-05-16T07:41:15.315Z,740
2017-05-16T07:41:56.202Z,760
2017-05-16T07:42:37.104Z,765
2017-05-16T07:43:18.012Z,785
2017-05-16T07:43:58.900Z,780
2017-05-16T07:44:39.802Z,745
2017-05-16T07:45:20.694Z,745
2017-05-16T07:46:01.591Z,760
2017-05-16T07:46:42.489Z,810
2017-05-16T07:47:23.373Z,875
2017-05-16T07:48:04.271Z,895
2017-05-16T07:48:45.175Z,900
2017-05-16T07:49:26.085Z,905
2017-05-16T07:50:06.994Z,905
2017-05-16T07:50:47.897Z,900
2017-05-16T07:51:28.795Z,910
2017-05-16T07:52:09.705Z,915
2017-05-16T07:52:50.610Z,925
2017-05-16T07:53:31.507Z,920
2017-05-16T07:54:12.417Z,915
2017-05-16T07:54:53.295Z,900
2017-05-16T07:55:34.207Z,895
2017-05-16T07:56:15.107Z,880
2017-05-16T07:56:56.009Z,880
2017-05-16T07:57:36.907Z,870
2017-05-16T07:58:17.809Z,860
2017-05-16T07:58:58.715Z,870
2017-05-16T07:59:39.616Z,895
2017-05-16T08:00:20.519Z,915
2017-05-16T08:01:01.418Z,970
2017-05-16T08:01:42.308Z,1000
2017-05-16T08:02:23.202Z,1000
2017-05-16T08:03:04.108Z,1025
2017-05-16T08:03:45.003Z,1030
2017-05-16T08:04:25.910Z,1020
2017-05-16T08:05:06.824Z,970
2017-05-16T08:05:47.764Z,905
2017-05-16T08:06:28.622Z,970
2017-05-16T08:07:09.541Z,1090
2017-05-16T08:07:50.451Z,1235
2017-05-16T08:08:31.359Z,1335
2017-05-16T08:09:12.265Z,1320
2017-05-16T08:09:53.175Z,1175
2017-05-16T08:10:34.076Z,1190
2017-05-16T08:11:14.985Z,1285
2017-05-16T08:11:55.886Z,1420
2017-05-16T08:12:36.785Z,1400
2017-05-16T08:13:17.694Z,1375
2017-05-16T08:13:58.587Z,1325
2017-05-16T08:14:39.513Z,1250
2017-05-16T08:15:20.419Z,1110
2017-05-16T08:16:01.336Z,1115
2017-05-16T08:16:42.224Z,1125
2017-05-16T08:17:23.129Z,1145
2017-05-16T08:18:04.016Z,1120
2017-05-16T08:18:44.935Z,1080
2017-05-16T08:19:25.858Z,990
2017-05-16T08:20:06.780Z,925
2017-05-16T08:20:47.647Z,880
2017-05-16T08:21:28.555Z,825
2017-05-16T08:22:09.458Z,760
2017-05-16T08:22:50.365Z,720
2017-05-16T08:23:31.265Z,675
2017-05-16T08:24:12.163Z,655
2017-05-16T08:24:53.073Z,645
2017-05-16T08:25:34.014Z,640
2017-05-16T08:26:14.961Z,640
2017-05-16T08:26:55.820Z,635
2017-05-16T08:27:36.718Z,635
2017-05-16T08:28:17.626Z,630
2017-05-16T08:28:58.530Z,645
2017-05-16T08:29:39.427Z,685
2017-05-16T08:30:20.339Z,705
2017-05-16T08:31:01.274Z,750
2017-05-16T08:31:42.110Z,775
2017-05-16T08:32:23.024Z,795
2017-05-16T08:33:03.923Z,820
2017-05-16T08:33:44.821Z,840
2017-05-16T08:34:25.721Z,850
2017-05-16T08:35:06.621Z,825
2017-05-16T08:35:47.519Z,815
2017-05-16T08:36:28.427Z,860
2017-05-16T08:37:09.335Z,915
2017-05-16T08:37:50.225Z,975
2017-05-16T08:38:31.122Z,1055
2017-05-16T08:39:12.021Z,1085
2017-05-16T08:39:52.908Z,1120
2017-05-16T08:40:33.823Z,1200
2017-05-16T08:41:14.719Z,1245
2017-05-16T08:41:55.619Z,1275
2017-05-16T08:42:36.528Z,1280
2017-05-16T08:43:17.419Z,1215
2017-05-16T08:43:58.315Z,1135
2017-05-16T08:44:39.212Z,1060
2017-05-16T08:45:20.114Z,975
2017-05-16T08:46:01.024Z,995
2017-05-16T08:46:41.925Z,970
2017-05-16T08:47:22.828Z,950
2017-05-16T08:48:03.712Z,950
2017-05-16T08:48:44.627Z,955
2017-05-16T08:49:25.506Z,920
2017-05-16T08:50:06.406Z,885
2017-05-16T08:50:47.309Z,845
2017-05-16T08:51:28.202Z,805
2017-05-16T08:52:09.120Z,770
2017-05-16T08:52:49.997Z,730
2017-05-16T08:53:30.895Z,720
2017-05-16T08:54:11.802Z,710
2017-05-16T08:54:52.701Z,700
2017-05-16T08:55:33.596Z,690
2017-05-16T08:56:14.499Z,690
2017-05-16T08:56:55.395Z,690
2017-05-16T08:57:36.300Z,690
2017-05-16T08:58:17.203Z,700
2017-05-16T08:58:58.108Z,695
2017-05-16T08:59:38.986Z,695
2017-05-16T09:00:19.889Z,690
2017-05-16T09:01:00.800Z,690
2017-05-16T09:01:41.691Z,685
2017-05-16T09:02:22.612Z,695
2017-05-16T09:03:03.498Z,695
2017-05-16T09:03:44.417Z,695
2017-05-16T09:04:25.322Z,700
2017-05-16T09:05:06.230Z,705
2017-05-16T09:05:47.131Z,700
2017-05-16T09:06:28.077Z,710
2017-05-16T09:07:08.965Z,720
2017-05-16T09:07:49.871Z,725
2017-05-16T09:08:30.769Z,730
2017-05-16T09:09:11.684Z,730
2017-05-16T09:09:52.577Z,720
2017-05-16T09:10:33.481Z,715
2017-05-16T09:11:14.386Z,705
2017-05-16T09:11:55.276Z,695
2017-05-16T09:12:36.185Z,685
2017-05-16T09:14:55.495Z,640
2017-05-16T09:15:36.402Z,630
2017-05-16T09:16:17.311Z,630
2017-05-16T09:16:58.221Z,620
2017-05-16T09:17:39.112Z,610
2017-05-16T09:18:20.019Z,600
2017-05-16T09:19:00.927Z,600
2017-05-16T09:19:41.832Z,600
2017-05-16T09:20:22.732Z,605
2017-05-16T09:21:03.636Z,620
2017-05-16T09:21:44.547Z,625
2017-05-16T09:22:25.433Z,635
2017-05-16T09:23:06.331Z,640
2017-05-16T09:23:47.223Z,620
2017-05-16T09:24:28.159Z,600
2017-05-16T09:25:09.060Z,600
2017-05-16T09:25:49.960Z,590
2017-05-16T09:26:30.862Z,575
2017-05-16T09:27:11.771Z,565
2017-05-16T09:27:52.668Z,550
2017-05-16T09:28:33.563Z,540
2017-05-16T09:29:14.461Z,545
2017-05-16T09:29:55.367Z,550
2017-05-16T09:30:36.266Z,550
2017-05-16T09:31:17.173Z,555
2017-05-16T09:31:58.079Z,555
2017-05-16T09:32:38.978Z,550
2017-05-16T09:33:19.881Z,545
2017-05-16T09:34:00.772Z,540
2017-05-16T09:34:41.654Z,525
2017-05-16T09:35:22.545Z,520
2017-05-16T09:36:03.440Z,515
2017-05-16T09:36:44.348Z,525
2017-05-16T09:37:25.237Z,525
2017-05-16T09:38:06.149Z,515
2017-05-16T09:38:47.041Z,510
2017-05-16T09:39:27.964Z,515
2017-05-16T09:40:08.855Z,515
2017-05-16T09:40:49.742Z,515
2017-05-16T09:41:30.642Z,520
2017-05-16T09:42:11.534Z,525
2017-05-16T09:42:52.433Z,520
2017-05-16T09:43:33.336Z,520
2017-05-16T09:44:14.220Z,525
2017-05-16T09:44:55.117Z,550
2017-05-16T09:45:36.019Z,585
2017-05-16T09:46:16.926Z,590